Time;durP1;ratioP1;P1;durP2;ratioP2;P2;SDS_P1;SDS_P2;PMS_P1;PMS_P2;Temp;Humidity;BMP_temperature;BMP_pressure;BME280_temperature;BME280_humidity;BME280_pressure;Samples;Min_cycle;Max_cycle;Signal;HPM_P1;HPM_P2
2023/02/15 00:01:33;;;;;;;2.60;1.30;;;;;;;-1.74;76.40;99937.41;105621;1259;73580;-25
2023/02/15 00:04:01;;;;;;;2.70;1.50;;;;;;;-1.84;76.99;99945.94;105647;1259;61186;-25
2023/02/15 00:06:31;;;;;;;1.90;1.00;;;;;;;-1.96;77.37;99944.58;105514;1259;62166;-25
2023/02/15 00:09:00;;;;;;;3.10;1.50;;;;;;;-1.50;76.94;99948.25;105526;1259;75641;-25
2023/02/15 00:14:19;;;;;;;2.00;1.40;;;;;;;-1.22;75.44;99956.12;105520;1254;73919;-25
2023/02/15 00:16:49;;;;;;;4.60;1.30;;;;;;;-1.40;76.43;99953.88;105507;1259;61174;-25
2023/02/15 00:19:18;;;;;;;7.50;1.90;;;;;;;-1.61;77.30;99958.67;105269;1260;61071;-25
2023/02/15 00:21:47;;;;;;;4.90;2.00;;;;;;;-1.90;78.37;99957.26;105534;1259;75635;-25
2023/02/15 00:24:17;;;;;;;4.00;1.80;;;;;;;-2.06;79.13;99960.56;105462;1255;76142;-25
2023/02/15 00:26:46;;;;;;;3.10;1.40;;;;;;;-2.19;80.20;99961.44;105458;1260;74447;-25
2023/02/15 00:29:15;;;;;;;3.60;1.90;;;;;;;-1.81;79.63;99960.52;105553;1257;61058;-25
2023/02/15 00:31:45;;;;;;;4.10;2.00;;;;;;;-1.51;77.69;99954.91;105445;1260;61142;-25
2023/02/15 00:34:18;;;;;;;4.70;1.80;;;;;;;-1.52;76.98;99955.11;105535;1254;73480;-24
2023/02/15 00:36:46;;;;;;;4.80;1.40;;;;;;;-1.70;77.13;99954.71;105509;1259;75474;-24
2023/02/15 00:39:16;;;;;;;2.40;1.40;;;;;;;-1.86;78.10;99952.25;105678;1260;74565;-25
2023/02/15 00:41:46;;;;;;;2.40;1.20;;;;;;;-1.99;77.74;99951.42;105474;1254;61324;-24
2023/02/15 00:44:15;;;;;;;2.30;1.50;;;;;;;-2.16;78.13;99949.65;105526;1259;62106;-25
2023/02/15 00:46:43;;;;;;;2.00;1.00;;;;;;;-2.18;78.11;99946.27;105624;1259;75352;-25
2023/02/15 00:49:11;;;;;;;1.90;1.60;;;;;;;-1.71;76.75;99944.19;105514;1254;75792;-25
2023/02/15 00:51:41;;;;;;;4.50;1.20;;;;;;;-1.44;74.90;99944.74;105508;1257;74079;-25
2023/02/15 00:54:10;;;;;;;1.70;1.20;;;;;;;-1.50;74.70;99946.55;105561;1254;61057;-25
2023/02/15 00:56:39;;;;;;;2.00;1.60;;;;;;;-1.64;74.72;99949.00;105477;1267;61845;-25
2023/02/15 00:59:09;;;;;;;3.10;1.40;;;;;;;-1.75;75.17;99953.79;105543;1260;74020;-25
2023/02/15 01:01:37;;;;;;;4.40;1.50;;;;;;;-2.01;75.64;99953.36;105746;1258;76027;-25
2023/02/15 01:04:06;;;;;;;2.80;1.70;;;;;;;-2.13;76.44;99956.57;105645;1258;74323;-25
2023/02/15 01:06:35;;;;;;;2.50;1.00;;;;;;;-2.13;76.52;99953.34;105531;1258;62883;-25
2023/02/15 01:09:04;;;;;;;1.60;1.40;;;;;;;-1.69;75.15;99955.73;105561;1257;61812;-25
2023/02/15 01:11:32;;;;;;;3.50;1.40;;;;;;;-1.42;73.87;99955.27;105719;1258;75362;-25
2023/02/15 01:14:03;;;;;;;2.00;1.20;;;;;;;-1.50;74.09;99950.98;105731;1260;75874;-25
2023/02/15 01:16:31;;;;;;;3.20;1.30;;;;;;;-1.73;74.51;99949.65;105703;1254;74409;-24
2023/02/15 01:19:02;;;;;;;5.60;1.30;;;;;;;-1.87;74.88;99951.27;105629;1254;61072;-24
2023/02/15 01:21:34;;;;;;;2.80;1.20;;;;;;;-2.05;75.52;99952.89;105476;1260;61613;-25
2023/02/15 01:24:03;;;;;;;5.50;1.40;;;;;;;-2.24;76.21;99947.38;105520;1257;74822;-25
2023/02/15 01:26:32;;;;;;;3.60;1.30;;;;;;;-2.22;76.51;99951.09;105525;1259;75849;-24
2023/02/15 01:29:01;;;;;;;1.70;1.00;;;;;;;-1.84;75.32;99947.79;104108;1259;1806346;-25
2023/02/15 01:31:29;;;;;;;1.70;1.00;;;;;;;-1.55;74.27;99946.14;105469;1255;61228;-25
2023/02/15 01:33:58;;;;;;;1.90;1.00;;;;;;;-1.63;74.06;99947.61;105500;1259;62139;-25
2023/02/15 01:36:27;;;;;;;1.20;0.90;;;;;;;-1.79;74.47;99946.87;105490;1254;75676;-25
2023/02/15 01:38:55;;;;;;;2.90;1.60;;;;;;;-2.04;74.80;99948.95;105489;1255;75981;-25
2023/02/15 01:41:26;;;;;;;3.40;1.20;;;;;;;-2.21;75.85;99947.34;105535;1257;74136;-25
2023/02/15 01:43:59;;;;;;;5.30;1.20;;;;;;;-2.34;76.39;99950.41;105506;1260;61189;-25
2023/02/15 01:46:33;;;;;;;2.40;1.20;;;;;;;-2.28;76.38;99950.33;105455;1259;62115;-24
2023/02/15 01:49:07;;;;;;;;;;;;;;;-1.84;75.09;99954.95;105353;1270;74671;-25
2023/02/15 01:51:36;;;;;;;2.00;1.20;;;;;;;-1.71;73.91;99957.63;105360;1260;75888;-24
2023/02/15 01:54:14;;;;;;;1.50;1.20;;;;;;;-1.88;73.92;99958.08;105522;1260;73266;-24
2023/02/15 01:56:42;;;;;;;3.40;1.50;;;;;;;-2.04;74.70;99953.23;105629;1254;61097;-25
2023/02/15 01:59:16;;;;;;;5.50;2.50;;;;;;;-2.21;75.25;99955.00;105439;1254;61170;-25
2023/02/15 02:01:45;;;;;;;2.90;1.10;;;;;;;-2.38;75.96;99948.77;105466;1255;74644;-24
2023/02/15 02:04:17;;;;;;;3.50;1.50;;;;;;;-2.39;76.35;99951.16;105469;1260;75115;-25
2023/02/15 02:06:46;;;;;;;3.80;1.50;;;;;;;-2.00;75.08;99954.33;105485;1259;73480;-24
2023/02/15 02:09:15;;;;;;;2.10;1.20;;;;;;;-1.78;74.16;99954.17;105504;1254;61409;-25
2023/02/15 02:11:46;;;;;;;2.90;1.20;;;;;;;-1.89;73.94;99954.86;105471;1261;61564;-25
2023/02/15 02:14:15;;;;;;;1.20;0.70;;;;;;;-2.03;74.39;99953.70;105608;1257;74615;-24
2023/02/15 02:16:50;;;;;;;2.90;1.10;;;;;;;-2.15;74.73;99959.84;105430;1259;76615;-24
2023/02/15 02:19:35;;;;;;;1.50;1.10;;;;;;;-2.38;75.63;99954.04;105291;1260;73813;-25
2023/02/15 02:22:08;;;;;;;2.50;1.20;;;;;;;-2.51;76.23;99948.77;105471;1260;61668;-25
2023/02/15 02:25:06;;;;;;;2.50;1.50;;;;;;;-2.59;76.73;99951.41;105553;1257;61888;-25
2023/02/15 02:27:48;;;;;;;3.60;1.10;;;;;;;-2.06;75.07;99954.77;105573;1260;75201;-25
2023/02/15 02:30:45;;;;;;;2.80;1.30;;;;;;;-1.92;74.06;99955.41;105470;1254;75686;-24
2023/02/15 02:33:25;;;;;;;1.20;1.00;;;;;;;-1.93;73.56;99960.19;105500;1254;74405;-25
2023/02/15 02:36:01;;;;;;;4.00;2.10;;;;;;;-2.08;74.04;99963.31;105348;1260;61192;-25
2023/02/15 02:38:33;;;;;;;2.30;1.90;;;;;;;-2.32;75.00;99964.16;105674;1258;61991;-25
2023/02/15 02:41:11;;;;;;;3.40;1.20;;;;;;;-2.53;75.58;99966.98;105708;1254;75659;-25
2023/02/15 02:43:49;;;;;;;1.70;1.40;;;;;;;-2.67;76.52;99971.92;105561;1261;75799;-25
2023/02/15 02:46:38;;;;;;;4.30;1.20;;;;;;;-2.62;76.60;99970.84;105530;1254;74433;-25
2023/02/15 02:49:07;;;;;;;1.10;1.00;;;;;;;-2.15;74.85;99976.00;105326;1254;61082;-25
2023/02/15 02:51:36;;;;;;;2.30;1.20;;;;;;;-2.09;74.62;99976.77;105466;1253;62147;-25
2023/02/15 03:01:55;;;;;;;7.40;1.90;;;;;;;-2.68;76.55;99980.44;102686;1292;600246;-26
2023/02/15 03:04:27;;;;;;;4.50;1.90;;;;;;;-2.77;76.88;99984.46;105199;1264;62777;-26
2023/02/15 03:07:03;;;;;;;3.60;2.00;;;;;;;-2.36;75.71;99985.80;105065;1266;61144;-26
2023/02/15 03:09:52;;;;;;;4.80;2.40;;;;;;;-2.11;74.70;99984.45;105096;1269;72968;-26
2023/02/15 03:12:27;;;;;;;6.90;4.00;;;;;;;-2.18;74.48;99980.98;105212;1264;74325;-26
2023/02/15 03:15:02;;;;;;;7.00;3.70;;;;;;;-2.35;74.85;99979.68;103530;1264;1886220;-26
2023/02/15 03:17:34;;;;;;;4.10;2.00;;;;;;;-2.56;75.58;99977.23;105051;1261;61127;-26
2023/02/15 03:20:15;;;;;;;4.30;1.70;;;;;;;-2.70;76.48;99978.94;104950;1261;61880;-26
2023/02/15 03:23:06;;;;;;;1.70;1.30;;;;;;;-2.79;77.04;99981.59;105273;1265;74159;-26
2023/02/15 03:25:38;;;;;;;1.70;1.10;;;;;;;-2.37;75.90;99986.86;105411;1263;75002;-26
2023/02/15 03:28:09;;;;;;;2.60;1.20;;;;;;;-2.06;74.24;99992.38;105391;1260;72916;-26
2023/02/15 03:30:38;;;;;;;2.00;0.90;;;;;;;-2.19;74.38;99985.23;105270;1263;61315;-26
2023/02/15 03:33:06;;;;;;;1.90;1.20;;;;;;;-2.37;74.92;99988.39;105520;1262;62139;-26
2023/02/15 03:35:44;;;;;;;2.40;1.00;;;;;;;-2.59;75.88;99990.02;105142;1258;74580;-26
2023/02/15 03:38:14;;;;;;;1.40;1.00;;;;;;;-2.68;76.22;99995.75;105511;1261;75862;-26
2023/02/15 03:41:30;;;;;;;1.80;1.20;;;;;;;-2.81;76.86;99994.36;105294;1261;74226;-26
2023/02/15 03:43:45;;;;;;;2.90;1.50;;;;;;;-2.82;77.20;99999.48;105309;1257;63032;-26
2023/02/15 03:46:37;;;;;;;5.10;0.90;;;;;;;-2.33;75.62;100005.84;105319;1257;61116;-26
2023/02/15 03:49:10;;;;;;;5.40;1.20;;;;;;;-2.23;74.92;100008.77;105282;1261;73527;-26
2023/02/15 03:51:39;;;;;;;;;;;;;;;-2.40;74.93;100004.06;105333;1263;75976;-26
2023/02/15 04:03:20;;;;;;;2.10;1.10;;;;;;;-2.57;76.46;100010.73;105318;1256;74985;-26
2023/02/15 04:05:53;;;;;;;2.60;1.10;;;;;;;-2.23;74.85;100005.21;105639;1257;76246;-26
2023/02/15 04:10:51;;;;;;;0.90;0.90;;;;;;;-2.31;74.85;100009.39;105630;1258;74142;-26
2023/02/15 04:11:10;;;;;;;4.70;1.30;;;;;;;-2.50;75.06;100007.59;105580;1258;61139;-26
2023/02/15 04:13:40;;;;;;;1.90;1.10;;;;;;;-2.75;75.96;100007.88;105524;1263;62360;-26
2023/02/15 04:16:08;;;;;;;2.40;0.80;;;;;;;-2.87;76.67;100015.33;105565;1258;74652;-26
2023/02/15 04:27:05;;;;;;;6.20;2.10;;;;;;;-2.42;74.87;100019.23;105220;1262;61857;-26
2023/02/15 04:29:34;;;;;;;3.80;0.90;;;;;;;-2.67;75.82;100025.48;105602;1257;73480;-25
2023/02/15 04:32:02;;;;;;;3.80;1.50;;;;;;;-2.85;76.48;100031.80;105520;1257;76000;-26
2023/02/15 04:34:31;;;;;;;5.00;1.60;;;;;;;-3.02;77.18;100028.06;105499;1257;74406;-26
2023/02/15 04:36:59;;;;;;;4.20;1.90;;;;;;;-3.05;77.70;100032.33;105287;1257;61152;-26
2023/02/15 04:39:28;;;;;;;1.80;1.20;;;;;;;-2.83;77.39;100033.64;105283;1259;62062;-25
2023/02/15 04:41:56;;;;;;;2.10;1.00;;;;;;;-2.36;75.40;100034.13;105361;1256;74856;-26
2023/02/15 04:44:25;;;;;;;4.10;1.70;;;;;;;-2.50;75.64;100031.73;105383;1257;74939;-26
2023/02/15 04:46:54;;;;;;;2.30;1.50;;;;;;;-2.69;76.24;100034.52;105569;1260;74108;-25
2023/02/15 04:49:23;;;;;;;8.30;2.50;;;;;;;-2.80;76.40;100040.58;105450;1261;61273;-25
2023/02/15 04:51:52;;;;;;;6.80;2.50;;;;;;;-2.92;76.85;100040.19;105379;1262;61850;-26
2023/02/15 04:54:20;;;;;;;3.00;2.00;;;;;;;-3.11;77.62;100036.46;105640;1258;74567;-26
2023/02/15 04:56:49;;;;;;;3.50;2.00;;;;;;;-3.04;77.91;100039.80;105560;1258;74999;-26
2023/02/15 04:59:18;;;;;;;9.00;3.10;;;;;;;-2.67;76.57;100040.44;105565;1257;74284;-26
2023/02/15 05:01:47;;;;;;;9.30;2.80;;;;;;;-2.70;76.26;100039.61;105273;1260;61119;-26
2023/02/15 05:04:15;;;;;;;4.60;1.60;;;;;;;-2.90;76.94;100043.91;105365;1258;61891;-26
2023/02/15 05:06:43;;;;;;;5.60;2.00;;;;;;;-2.98;77.20;100045.34;105250;1257;74589;-26
2023/02/15 05:09:12;;;;;;;3.60;2.40;;;;;;;-3.17;77.71;100047.56;105318;1257;76227;-26
2023/02/15 05:11:41;;;;;;;1.50;0.90;;;;;;;-3.24;78.18;100047.62;105481;1258;74469;-26
2023/02/15 05:14:09;;;;;;;2.20;1.10;;;;;;;-3.04;78.09;100050.33;105245;1256;61356;-26
2023/02/15 05:16:38;;;;;;;2.60;1.00;;;;;;;-2.66;76.35;100053.00;105256;1260;61571;-26
2023/02/15 05:19:07;;;;;;;2.10;0.90;;;;;;;-2.62;75.87;100056.36;105509;1258;74609;-27
2023/02/15 05:21:36;;;;;;;2.50;1.30;;;;;;;-2.73;76.20;100053.59;105518;1257;76082;-25
2023/02/15 05:28:19;;;;;;;3.00;1.60;;;;;;;-2.90;76.71;100055.98;105490;1257;74174;-25
2023/02/15 05:29:40;;;;;;;3.00;1.60;;;;;;;-3.27;78.20;100061.06;105561;1262;62099;-25
2023/02/15 05:32:13;;;;;;;2.10;1.00;;;;;;;-3.03;78.18;100064.08;109223;1256;74160;-26
2023/02/15 05:34:42;;;;;;;2.20;1.40;;;;;;;-2.57;76.17;100063.27;109063;1256;73040;-25
2023/02/15 05:37:10;;;;;;;3.70;0.90;;;;;;;-2.73;76.10;100063.10;109272;1256;73882;-26
2023/02/15 05:39:38;;;;;;;2.50;1.60;;;;;;;-2.84;76.76;100071.71;109115;1255;59303;-25
2023/02/15 05:42:07;;;;;;;2.60;1.50;;;;;;;-2.86;76.96;100071.74;109274;1256;60111;-26
2023/02/15 05:44:36;;;;;;;6.10;1.20;;;;;;;-2.95;77.12;100078.13;109293;1256;74260;-25
2023/02/15 05:47:06;;;;;;;5.40;1.50;;;;;;;-3.12;77.90;100081.33;109137;1255;75356;-26
2023/02/15 05:49:35;;;;;;;2.40;1.40;;;;;;;-3.23;78.63;100084.48;109278;1256;73335;-25
2023/02/15 05:52:04;;;;;;;1.90;1.40;;;;;;;-2.84;77.65;100088.55;109101;1256;60569;-25
2023/02/15 05:54:32;;;;;;;3.30;1.10;;;;;;;-2.57;75.96;100089.80;109287;1256;61955;-26
2023/02/15 05:57:00;;;;;;;2.00;1.10;;;;;;;-2.42;75.41;100091.17;109278;1256;73743;-26
2023/02/15 05:59:29;;;;;;;3.70;1.50;;;;;;;-2.61;76.01;100093.07;109114;1257;74081;-26
2023/02/15 06:01:57;;;;;;;3.00;1.40;;;;;;;-2.80;76.62;100098.02;109011;1256;72720;-25
2023/02/15 06:04:26;;;;;;;5.00;1.40;;;;;;;-2.85;77.09;100103.16;109116;1256;60537;-25
2023/02/15 06:06:54;;;;;;;4.50;1.30;;;;;;;-2.99;77.86;100104.31;109137;1255;60307;-25
2023/02/15 06:09:23;;;;;;;1.30;1.10;;;;;;;-3.03;78.24;100108.44;109290;1255;72107;-26
2023/02/15 06:11:51;;;;;;;3.40;1.60;;;;;;;-2.69;77.45;100109.98;109297;1256;75600;-25
2023/02/15 06:14:20;;;;;;;6.80;1.40;;;;;;;-2.39;76.08;100110.86;109101;1255;72619;-26
2023/02/15 06:16:48;;;;;;;1.50;0.90;;;;;;;-2.30;75.64;100114.34;109099;1256;58725;-26
2023/02/15 06:19:17;;;;;;;4.00;1.30;;;;;;;-2.29;75.72;100113.48;109127;1255;61019;-26
2023/02/15 06:21:46;;;;;;;2.60;1.20;;;;;;;-2.59;76.09;100115.33;109135;1256;73702;-26
2023/02/15 06:24:14;;;;;;;4.90;1.80;;;;;;;-2.66;76.67;100120.83;109300;1256;75580;-26
2023/02/15 06:26:44;;;;;;;8.30;3.00;;;;;;;-2.59;76.75;100123.67;109278;1257;73286;-26
2023/02/15 06:29:12;;;;;;;9.60;3.50;;;;;;;-2.70;76.95;100122.92;109258;1256;60609;-26
2023/02/15 06:31:40;;;;;;;7.50;2.80;;;;;;;-2.71;77.51;100118.02;109129;1256;61130;-26
2023/02/15 06:34:08;;;;;;;6.90;3.00;;;;;;;-2.56;77.21;100120.24;109248;1256;73953;-26
2023/02/15 06:36:37;;;;;;;6.90;2.60;;;;;;;-2.14;76.46;100120.78;109136;1256;75028;-26
2023/02/15 06:39:05;;;;;;;9.50;3.30;;;;;;;-1.94;74.57;100125.48;109132;1256;74377;-26
2023/02/15 06:41:34;;;;;;;4.00;2.10;;;;;;;-2.10;74.98;100125.85;109162;1256;59704;-25
2023/02/15 06:44:02;;;;;;;3.10;1.40;;;;;;;-2.18;75.49;100123.55;109151;1256;59182;-26
2023/02/15 06:46:31;;;;;;;5.10;2.40;;;;;;;-2.14;75.46;100128.61;109115;1256;73882;-26
2023/02/15 06:49:00;;;;;;;5.40;2.40;;;;;;;-2.18;75.57;100129.35;109231;1256;73702;-26
2023/02/15 06:51:28;;;;;;;3.80;1.40;;;;;;;-2.30;76.32;100127.27;109192;1256;72582;-26
2023/02/15 06:53:57;;;;;;;13.20;3.90;;;;;;;-2.26;76.30;100129.44;109173;1256;59242;-25
2023/02/15 06:56:25;;;;;;;8.70;2.30;;;;;;;-2.36;76.93;100124.61;109136;1256;62201;-25
2023/02/15 06:58:53;;;;;;;8.70;2.10;;;;;;;-2.33;76.20;100119.98;109223;1256;72753;-26
2023/02/15 07:01:22;;;;;;;4.80;1.90;;;;;;;-2.30;76.51;100117.74;109132;1256;75463;-26
2023/02/15 07:03:50;;;;;;;7.60;2.50;;;;;;;-2.22;76.09;100117.82;109177;1256;73568;-26
2023/02/15 07:06:18;;;;;;;5.40;2.30;;;;;;;-2.27;76.13;100119.58;109155;1256;59561;-26
2023/02/15 07:08:48;;;;;;;4.60;2.00;;;;;;;-2.19;76.38;100119.16;109231;1256;60259;-26
2023/02/15 07:14:02;;;;;;;5.00;2.60;;;;;;;-2.05;76.12;100122.71;109196;1256;75368;-25
2023/02/15 07:16:33;;;;;;;4.60;2.50;;;;;;;-2.02;75.59;100119.80;109185;1256;73410;-26
2023/02/15 07:19:01;;;;;;;2.70;1.60;;;;;;;-2.06;75.39;100123.24;109103;1256;60592;-25
2023/02/15 07:21:34;;;;;;;5.90;2.10;;;;;;;-1.96;75.37;100120.05;109253;1256;59994;-25
2023/02/15 07:24:03;;;;;;;4.60;2.20;;;;;;;-1.74;74.84;100125.39;109123;1256;73746;-26
2023/02/15 07:26:32;;;;;;;3.80;2.20;;;;;;;-1.68;74.35;100122.92;109216;1256;75527;-25
2023/02/15 07:29:00;;;;;;;2.70;1.40;;;;;;;-1.54;74.40;100126.99;108988;1257;72705;-25
2023/02/15 07:31:28;;;;;;;2.90;1.30;;;;;;;-1.59;74.01;100129.10;109090;1256;60483;-25
2023/02/15 07:33:57;;;;;;;5.50;1.70;;;;;;;-1.42;73.53;100129.37;109046;1257;61029;-26
2023/02/15 07:36:25;;;;;;;3.00;1.50;;;;;;;-1.51;73.32;100132.05;109102;1257;74755;-25
2023/02/15 07:38:53;;;;;;;6.40;1.80;;;;;;;-1.41;73.45;100130.39;108999;1257;75254;-26
2023/02/15 07:41:23;;;;;;;6.30;2.60;;;;;;;-1.03;72.93;100133.73;108978;1257;73544;-26
2023/02/15 07:43:51;;;;;;;2.40;1.30;;;;;;;-0.94;72.44;100137.50;109059;1257;60657;-25
2023/02/15 07:46:20;;;;;;;6.80;2.40;;;;;;;-0.92;71.85;100134.38;108986;1257;60005;-25
2023/02/15 07:48:49;;;;;;;5.80;2.80;;;;;;;-1.06;72.50;100131.88;109097;1258;73739;-26
2023/02/15 07:51:17;;;;;;;6.00;2.80;;;;;;;-0.78;71.51;100128.86;109102;1257;75035;-26
2023/02/15 07:53:46;;;;;;;6.60;2.60;;;;;;;-0.80;71.25;100134.85;109098;1257;73651;-25
2023/02/15 07:56:15;;;;;;;6.20;3.50;;;;;;;-0.69;71.04;100134.86;109067;1257;60761;-26
2023/02/15 07:58:55;;;;;;;5.70;2.80;;;;;;;-0.73;70.61;100134.41;109109;1257;60018;-26
2023/02/15 08:01:31;;;;;;;8.20;2.30;;;;;;;-0.74;70.80;100136.98;109096;1257;74958;-24
2023/02/15 08:04:00;;;;;;;7.50;3.30;;;;;;;-0.57;70.58;100140.27;108939;1257;74461;-24
2023/02/15 08:06:30;;;;;;;4.80;2.50;;;;;;;-0.67;70.30;100142.14;109089;1257;73953;-24
2023/02/15 08:09:01;;;;;;;4.70;2.20;;;;;;;-0.61;69.87;100146.65;108918;1260;60559;-24
2023/02/15 08:11:39;;;;;;;4.00;2.20;;;;;;;-0.68;70.29;100150.52;108938;1257;61268;-25
2023/02/15 08:14:11;;;;;;;3.70;2.00;;;;;;;-0.62;69.74;100144.79;108949;1257;74974;-27
2023/02/15 08:16:41;;;;;;;4.00;2.30;;;;;;;-0.83;69.83;100148.55;108963;1258;75452;-26
2023/02/15 08:19:16;;;;;;;4.00;2.10;;;;;;;-0.88;69.68;100144.39;108975;1257;73742;-26
2023/02/15 08:21:59;;;;;;;5.10;1.50;;;;;;;-0.59;69.88;100146.10;108966;1257;59335;-26
2023/02/15 08:24:30;;;;;;;3.40;1.80;;;;;;;-0.41;68.63;100139.81;109005;1257;60128;-26
2023/02/15 08:27:02;;;;;;;3.70;1.70;;;;;;;-0.12;68.43;100144.04;108935;1257;75002;-26
2023/02/15 08:29:33;;;;;;;5.40;1.60;;;;;;;-0.12;67.59;100144.88;109100;1257;74436;-25
2023/02/15 08:32:04;;;;;;;2.80;1.20;;;;;;;-0.19;67.33;100140.23;109012;1257;73625;-26
2023/02/15 08:34:36;;;;;;;5.00;2.20;;;;;;;-0.03;66.97;100140.61;108921;1259;60612;-25
2023/02/15 08:37:05;;;;;;;3.30;1.80;;;;;;;0.14;66.90;100142.81;108969;1258;62341;-26
2023/02/15 08:39:34;;;;;;;3.40;2.20;;;;;;;-0.06;66.03;100142.20;109095;1259;74720;-26
2023/02/15 08:42:03;;;;;;;3.60;1.40;;;;;;;0.22;66.54;100141.47;109090;1259;75559;-26
2023/02/15 08:44:32;;;;;;;3.70;1.50;;;;;;;0.50;65.62;100139.65;109073;1259;73582;-26
2023/02/15 08:47:03;;;;;;;4.30;1.80;;;;;;;0.50;65.47;100138.12;109045;1259;60597;-26
2023/02/15 08:49:32;;;;;;;5.30;1.80;;;;;;;0.67;65.22;100139.13;109107;1259;61239;-26
2023/02/15 08:52:00;;;;;;;3.10;1.60;;;;;;;0.42;64.31;100144.63;108981;1258;74066;-26
2023/02/15 08:54:29;;;;;;;3.70;1.90;;;;;;;0.38;64.54;100142.99;109070;1258;75446;-26
2023/02/15 08:56:58;;;;;;;2.60;1.60;;;;;;;0.32;64.90;100141.42;108993;1259;72682;-26
2023/02/15 08:59:27;;;;;;;2.70;1.30;;;;;;;0.71;64.93;100142.27;109067;1259;60210;-26
2023/02/15 09:01:55;;;;;;;3.60;1.90;;;;;;;0.81;64.08;100146.46;108972;1259;59990;-24
2023/02/15 09:04:23;;;;;;;1.50;0.90;;;;;;;0.77;63.57;100150.67;109058;1259;74755;-24
2023/02/15 09:06:52;;;;;;;5.40;1.50;;;;;;;0.88;63.36;100153.99;108999;1259;75237;-24
2023/02/15 09:09:22;;;;;;;4.60;1.70;;;;;;;0.70;63.55;100152.05;108957;1259;71579;-24
2023/02/15 09:11:51;;;;;;;3.00;1.60;;;;;;;0.84;62.82;100151.36;109037;1258;59631;-24
2023/02/15 09:14:26;;;;;;;1.50;0.70;;;;;;;0.72;62.50;100146.67;108982;1258;61595;-24
2023/02/15 09:16:55;;;;;;;3.30;1.40;;;;;;;0.99;63.12;100149.30;108968;1258;74484;-24
2023/02/15 09:19:24;;;;;;;4.00;1.90;;;;;;;1.31;62.53;100146.64;109069;1259;75524;-24
2023/02/15 09:21:53;;;;;;;3.00;1.50;;;;;;;1.10;61.93;100142.36;109065;1259;73204;-24
2023/02/15 09:24:21;;;;;;;2.80;1.30;;;;;;;0.98;61.86;100144.20;109039;1259;58826;-24
2023/02/15 09:26:53;;;;;;;1.80;1.20;;;;;;;1.17;61.06;100142.54;108972;1258;59351;-24
2023/02/15 09:29:22;;;;;;;3.30;1.60;;;;;;;1.04;60.48;100143.20;109028;1259;73768;-24
2023/02/15 09:31:50;;;;;;;2.10;1.10;;;;;;;1.21;60.30;100145.01;108975;1258;74501;-23
2023/02/15 09:34:20;;;;;;;3.80;1.60;;;;;;;1.21;60.37;100147.22;108980;1259;72474;-24
2023/02/15 09:36:48;;;;;;;3.20;1.40;;;;;;;1.36;60.65;100144.63;108774;1259;60256;-24
2023/02/15 09:39:24;;;;;;;3.70;1.70;;;;;;;1.23;60.25;100140.70;108999;1259;60997;-24
2023/02/15 09:41:58;;;;;;;4.50;1.70;;;;;;;1.17;59.10;100142.55;108833;1259;73530;-24
2023/02/15 09:44:45;;;;;;;;;;;;;;;1.36;60.40;100141.88;108919;1259;75583;-24
2023/02/15 09:47:25;;;;;;;4.30;1.90;;;;;;;1.41;59.64;100142.27;108945;1259;71511;-24
2023/02/15 09:50:12;;;;;;;2.50;1.40;;;;;;;1.53;59.54;100139.89;108961;1259;60582;-24
2023/02/15 09:52:59;;;;;;;3.10;1.60;;;;;;;1.49;58.56;100136.06;108856;1259;60356;-24
2023/02/15 09:55:35;;;;;;;4.90;1.90;;;;;;;1.42;57.75;100136.59;108913;1259;75028;-24
2023/02/15 09:58:25;;;;;;;4.90;1.40;;;;;;;1.55;58.35;100134.38;108959;1259;74414;-24
2023/02/15 10:01:09;;;;;;;2.80;1.10;;;;;;;1.45;60.00;100131.55;108869;1260;72641;-24
2023/02/15 10:03:53;;;;;;;4.70;1.40;;;;;;;1.76;59.96;100136.38;108928;1260;59560;-24
2023/02/15 10:06:42;;;;;;;2.80;1.40;;;;;;;1.89;59.35;100121.80;108906;1260;61489;-24
2023/02/15 10:09:29;;;;;;;1.50;0.90;;;;;;;1.84;60.33;100132.73;108936;1261;74813;-24
2023/02/15 10:12:22;;;;;;;3.60;1.20;;;;;;;1.70;59.99;100125.27;108958;1260;74268;-24
2023/02/15 10:14:56;;;;;;;2.70;0.90;;;;;;;1.46;60.74;100126.04;108888;1260;72628;-25
2023/02/15 10:17:36;;;;;;;2.40;0.90;;;;;;;1.38;61.27;100114.79;108834;1260;60509;-24
2023/02/15 10:20:38;;;;;;;2.10;0.70;;;;;;;1.42;61.72;100122.56;108928;1261;60328;-24
2023/02/15 10:23:15;;;;;;;1.50;1.00;;;;;;;1.23;60.80;100123.58;108915;1260;74750;-25
2023/02/15 10:25:56;;;;;;;2.30;1.00;;;;;;;1.35;61.04;100118.82;108945;1260;75355;-25
2023/02/15 10:28:51;;;;;;;2.40;1.20;;;;;;;1.20;62.25;100107.73;108905;1260;73618;-25
2023/02/15 10:31:27;;;;;;;4.20;1.60;;;;;;;1.34;63.71;100112.00;108871;1260;60717;-25
2023/02/15 10:34:05;;;;;;;2.10;1.10;;;;;;;1.13;63.54;100108.09;108805;1260;60032;-25
2023/02/15 10:37:06;;;;;;;3.70;1.40;;;;;;;1.02;62.81;100109.89;108840;1260;74739;-25
2023/02/15 10:39:57;;;;;;;3.70;1.00;;;;;;;1.05;63.76;100112.72;109074;1257;75567;-25
2023/02/15 10:42:39;;;;;;;1.60;1.10;;;;;;;1.04;63.22;100114.14;109061;1257;73988;-25
2023/02/15 10:45:15;;;;;;;1.80;1.20;;;;;;;1.14;62.53;100107.55;109019;1258;59290;-25
2023/02/15 10:48:08;;;;;;;3.00;1.50;;;;;;;1.14;61.91;100108.75;109089;1257;59140;-25
2023/02/15 10:50:44;;;;;;;3.10;1.30;;;;;;;1.23;63.22;100110.56;109039;1257;74852;-25
2023/02/15 10:53:35;;;;;;;2.00;1.10;;;;;;;1.21;63.77;100115.77;108993;1257;75242;-25
2023/02/15 10:56:20;;;;;;;2.30;1.10;;;;;;;1.22;63.12;100105.80;108998;1257;72132;-25
2023/02/15 10:59:12;;;;;;;3.50;1.40;;;;;;;1.06;63.59;100109.98;109050;1257;60453;-25
2023/02/15 11:01:46;;;;;;;2.80;1.10;;;;;;;0.93;62.87;100109.42;109034;1257;60580;-25
2023/02/15 11:04:44;;;;;;;1.70;1.10;;;;;;;1.12;63.29;100116.67;109014;1257;74730;-25
2023/02/15 11:07:23;;;;;;;2.60;1.70;;;;;;;1.01;62.92;100117.11;109000;1257;75166;-25
2023/02/15 11:10:13;;;;;;;3.50;1.30;;;;;;;1.08;62.74;100113.17;109035;1257;73869;-25
2023/02/15 11:12:45;;;;;;;1.30;0.90;;;;;;;1.05;62.48;100121.11;109043;1257;59353;-25
2023/02/15 11:15:45;;;;;;;2.20;1.20;;;;;;;1.06;61.87;100112.18;108918;1257;60306;-26
2023/02/15 11:18:32;;;;;;;2.90;1.00;;;;;;;1.01;62.40;100121.53;108803;1257;74697;-25
2023/02/15 11:21:07;;;;;;;3.50;1.40;;;;;;;1.14;63.32;100117.63;109043;1257;75184;-25
2023/02/15 11:23:40;;;;;;;1.40;0.90;;;;;;;1.00;63.61;100114.90;109053;1257;71515;-25
2023/02/15 11:26:39;;;;;;;2.40;1.20;;;;;;;1.06;63.94;100120.07;108961;1257;59240;-25
2023/02/15 11:29:27;;;;;;;1.60;1.30;;;;;;;1.16;64.82;100121.02;109014;1257;61318;-25
2023/02/15 11:31:57;;;;;;;4.50;2.00;;;;;;;1.15;65.47;100121.89;109074;1257;73518;-25
2023/02/15 11:34:34;;;;;;;3.60;1.50;;;;;;;1.09;66.20;100126.15;108967;1259;75578;-25
2023/02/15 11:37:14;;;;;;;5.00;1.90;;;;;;;1.12;67.03;100122.64;108909;1261;71269;-25
2023/02/15 11:39:51;;;;;;;3.80;2.60;;;;;;;1.08;66.27;100115.89;108923;1259;59609;-25
2023/02/15 11:42:24;;;;;;;2.20;1.40;;;;;;;0.97;65.97;100123.87;108909;1259;60353;-25
2023/02/15 11:45:22;;;;;;;7.40;2.00;;;;;;;0.95;66.54;100127.00;108916;1259;72981;-25
2023/02/15 11:47:55;;;;;;;4.30;1.80;;;;;;;1.16;66.96;100128.89;109007;1259;74257;-25
2023/02/15 11:50:27;;;;;;;3.90;1.70;;;;;;;1.14;66.37;100118.84;108907;1259;73242;-25
2023/02/15 11:53:05;;;;;;;1.60;1.20;;;;;;;0.82;66.47;100116.02;108886;1265;58754;-26
2023/02/15 11:55:37;;;;;;;2.30;1.40;;;;;;;0.82;66.45;100119.10;108985;1259;60393;-25
2023/02/15 11:58:45;;;;;;;3.20;1.60;;;;;;;0.76;65.74;100117.55;108949;1258;75027;-25
2023/02/15 12:01:35;;;;;;;4.00;1.40;;;;;;;0.85;66.41;100125.17;109029;1258;74302;-26
2023/02/15 12:04:21;;;;;;;2.60;1.50;;;;;;;0.94;66.24;100124.98;109015;1259;73852;-25
2023/02/15 12:07:14;;;;;;;3.00;1.50;;;;;;;0.77;65.71;100122.65;108897;1259;59117;-25
2023/02/15 12:10:11;;;;;;;3.30;1.80;;;;;;;0.83;65.68;100127.83;108900;1259;60332;-25
2023/02/15 12:12:42;;;;;;;3.00;1.50;;;;;;;0.76;65.21;100122.50;108938;1259;75045;-25
2023/02/15 12:15:13;;;;;;;4.70;1.40;;;;;;;0.74;65.65;100121.67;108968;1259;74375;-25
2023/02/15 12:17:54;;;;;;;2.10;1.40;;;;;;;0.77;64.06;100118.38;108877;1262;72384;-25
2023/02/15 12:20:42;;;;;;;2.60;1.20;;;;;;;0.67;64.15;100118.24;108896;1259;60762;-25
2023/02/15 12:23:13;;;;;;;4.70;1.30;;;;;;;0.64;64.63;100114.73;108941;1259;59187;-25
2023/02/15 12:25:53;;;;;;;2.00;1.30;;;;;;;0.62;65.49;100114.27;108898;1259;75802;-25